Time;durP1;ratioP1;P1;durP2;ratioP2;P2;SDS_P1;SDS_P2;PMS_P1;PMS_P2;Temp;Humidity;BMP_temperature;BMP_pressure;BME280_temperature;BME280_humidity;BME280_pressure;Samples;Min_cycle;Max_cycle;Signal;HPM_P1;HPM_P2
2022/06/02 00:00:25;;;;;;;16.17;10.08;;;;;;;12.34;87.09;98053.72;1765081;80;21066;-86
2022/06/02 00:03:27;;;;;;;19.10;10.43;;;;;;;12.28;85.89;98046.72;1764815;79;21447;-85
2022/06/02 00:06:22;;;;;;;17.45;11.43;;;;;;;12.26;84.11;98056.27;1779013;80;21027;-86
2022/06/02 00:09:15;;;;;;;13.85;9.50;;;;;;;12.08;87.67;98053.20;1773341;80;21063;-83
2022/06/02 00:12:25;;;;;;;16.80;9.63;;;;;;;12.03;87.59;98051.89;1777623;80;21036;-85
2022/06/02 00:15:18;;;;;;;15.60;9.10;;;;;;;12.01;87.60;98056.80;1779432;80;20989;-86
2022/06/02 00:18:03;;;;;;;15.58;10.25;;;;;;;12.00;86.10;98051.11;1779278;79;21216;-83
2022/06/02 00:20:49;;;;;;;16.57;9.90;;;;;;;12.01;85.98;98058.16;1778799;80;21528;-86
2022/06/02 00:23:42;;;;;;;15.20;10.48;;;;;;;12.02;87.80;98050.82;1779208;79;20986;-84
2022/06/02 00:26:31;;;;;;;14.18;9.25;;;;;;;12.03;86.78;98055.16;1778845;80;21028;-83
2022/06/02 00:29:08;;;;;;;14.28;9.13;;;;;;;12.02;86.97;98056.25;1750313;80;21059;-86
2022/06/02 00:31:54;;;;;;;13.38;9.88;;;;;;;12.01;86.82;98054.09;1771441;79;21765;-84
2022/06/02 00:34:47;;;;;;;13.10;9.35;;;;;;;12.03;84.96;98063.30;1769139;80;20946;-83
2022/06/02 00:37:33;;;;;;;16.10;10.08;;;;;;;12.00;86.28;98065.24;1768197;80;21465;-86
2022/06/02 00:39:59;;;;;;;15.70;9.58;;;;;;;11.99;87.05;98060.91;1766076;80;21071;-85
2022/06/02 00:43:01;;;;;;;16.00;9.98;;;;;;;11.98;86.47;98070.16;1737255;80;21003;-86
2022/06/02 00:45:29;;;;;;;13.15;9.30;;;;;;;11.98;87.35;98065.53;1758335;80;22028;-86
2022/06/02 00:48:13;;;;;;;11.70;8.60;;;;;;;11.97;88.84;98059.84;1779081;80;21036;-83
2022/06/02 00:50:56;;;;;;;17.32;9.83;;;;;;;11.99;88.72;98061.72;1778965;80;21028;-83
2022/06/02 00:57:43;;;;;;;12.20;7.75;;;;;;;12.05;88.54;98086.93;1779254;79;21055;-83
2022/06/02 01:00:23;;;;;;;14.70;8.73;;;;;;;12.02;90.00;98101.88;1771581;80;21449;-85
2022/06/02 01:02:57;;;;;;;13.45;7.90;;;;;;;12.19;86.78;98103.34;1746164;80;21026;-86
2022/06/02 01:05:51;;;;;;;14.87;8.58;;;;;;;12.27;86.40;98085.86;1770146;80;21069;-86
2022/06/02 01:08:38;;;;;;;13.00;8.50;;;;;;;12.32;86.12;98087.72;1779309;79;20992;-86
2022/06/02 01:11:50;;;;;;;14.20;8.78;;;;;;;12.40;85.65;98072.14;1779441;80;21048;-86
2022/06/02 01:14:51;;;;;;;13.90;8.18;;;;;;;12.44;85.53;98074.52;1778580;80;21370;-84
2022/06/02 01:17:35;;;;;;;17.45;10.20;;;;;;;12.48;85.23;98078.84;1742472;80;21039;-83
2022/06/02 01:20:15;;;;;;;14.07;9.18;;;;;;;12.50;85.09;98081.52;1776239;80;20977;-83
2022/06/02 01:23:33;;;;;;;13.40;8.33;;;;;;;12.54;85.15;98088.53;1779244;79;21001;-86
2022/06/02 01:26:42;;;;;;;18.93;9.17;;;;;;;12.55;85.33;98090.95;1770120;80;21017;-86
2022/06/02 01:29:47;;;;;;;16.60;9.15;;;;;;;12.47;85.99;98090.79;1778922;80;21218;-86
2022/06/02 01:32:17;;;;;;;11.38;8.30;;;;;;;12.37;87.40;98100.68;1761250;80;21402;-84
2022/06/02 01:34:55;;;;;;;14.93;9.35;;;;;;;12.33;86.22;98107.00;1765529;80;21063;-86
2022/06/02 01:38:04;;;;;;;18.00;10.75;;;;;;;12.33;86.43;98106.45;1727859;81;20979;-87
2022/06/02 01:40:51;;;;;;;14.15;9.60;;;;;;;12.37;86.13;98116.17;1771432;80;21343;-85
2022/06/02 01:43:24;;;;;;;13.13;10.03;;;;;;;12.37;86.18;98123.78;1779356;79;21301;-84
2022/06/02 01:46:25;;;;;;;11.93;8.70;;;;;;;12.40;86.28;98130.02;1758450;80;21467;-82
2022/06/02 01:49:23;;;;;;;15.50;8.68;;;;;;;12.41;86.76;98125.39;1730412;80;20940;-81
2022/06/02 01:52:12;;;;;;;12.37;8.40;;;;;;;12.35;90.05;98118.37;1750904;80;21551;-87
2022/06/02 01:55:10;;;;;;;13.10;9.73;;;;;;;12.27;91.38;98106.78;1739334;80;21070;-84
2022/06/02 01:58:16;;;;;;;13.15;8.80;;;;;;;12.28;90.78;98108.40;1772346;80;21121;-84
2022/06/02 02:00:42;;;;;;;10.75;7.80;;;;;;;12.31;89.69;98107.30;1778907;80;20993;-87
2022/06/02 02:03:28;;;;;;;12.50;8.80;;;;;;;12.25;89.37;98098.13;1779284;80;20874;-84
2022/06/02 02:06:24;;;;;;;12.20;8.55;;;;;;;12.24;91.89;98108.73;1779341;80;21013;-87
2022/06/02 02:09:08;;;;;;;11.03;8.53;;;;;;;12.23;90.48;98108.47;1778872;80;21088;-87
2022/06/02 02:11:53;;;;;;;11.95;8.35;;;;;;;12.26;89.86;98108.69;1765597;80;21067;-87
2022/06/02 02:14:39;;;;;;;19.45;9.03;;;;;;;12.30;89.64;98108.91;1767678;80;21040;-84
2022/06/02 02:17:20;;;;;;;12.43;9.13;;;;;;;12.32;91.11;98117.61;1780384;79;20981;-87
2022/06/02 02:20:09;;;;;;;15.55;9.10;;;;;;;12.35;91.16;98111.59;1770022;80;21012;-85
2022/06/02 02:23:00;;;;;;;13.00;9.23;;;;;;;12.37;89.40;98113.46;1779041;80;21036;-87
2022/06/02 02:25:54;;;;;;;15.32;9.05;;;;;;;12.30;89.29;98122.50;1774425;80;21458;-87
2022/06/02 02:28:35;;;;;;;13.03;8.20;;;;;;;12.33;89.10;98135.53;1737135;81;21012;-87
2022/06/02 02:31:12;;;;;;;14.73;11.43;;;;;;;12.36;89.43;98141.18;1777778;80;20996;-87
2022/06/02 02:34:20;;;;;;;20.43;10.82;;;;;;;12.41;89.61;98127.55;1774157;80;21004;-84
2022/06/02 02:37:15;;;;;;;16.40;11.85;;;;;;;12.41;89.30;98145.22;1772137;79;21151;-84
2022/06/02 02:40:12;;;;;;;13.28;11.25;;;;;;;12.47;89.52;98151.39;1778270;80;21860;-84
2022/06/02 02:43:06;;;;;;;15.08;10.68;;;;;;;12.55;88.98;98148.03;1778689;80;21068;-84
2022/06/02 02:45:46;;;;;;;20.70;11.18;;;;;;;12.57;88.63;98151.30;1777427;80;21004;-86
2022/06/02 02:48:40;;;;;;;15.75;11.18;;;;;;;12.58;88.52;98150.20;1778946;79;20993;-87
2022/06/02 02:51:54;;;;;;;14.95;10.82;;;;;;;12.57;90.17;98147.77;1755574;80;21072;-84
2022/06/02 02:54:28;;;;;;;14.80;9.58;;;;;;;12.54;88.99;98140.17;1775195;80;21087;-88
2022/06/02 02:57:06;;;;;;;14.13;10.18;;;;;;;12.46;89.79;98136.73;1766994;79;20996;-84
2022/06/02 02:59:59;;;;;;;17.80;10.43;;;;;;;12.43;89.76;98133.50;1778493;80;21036;-87
2022/06/02 03:03:02;;;;;;;13.83;9.08;;;;;;;12.38;96.07;98118.60;1778640;80;21005;-85
2022/06/02 03:06:07;;;;;;;11.15;8.85;;;;;;;12.38;91.63;98117.24;1778907;80;21266;-84
2022/06/02 03:08:53;;;;;;;11.88;8.93;;;;;;;12.30;92.17;98120.59;1778556;80;21145;-84
2022/06/02 03:11:32;;;;;;;15.80;9.45;;;;;;;12.26;90.78;98118.75;1742699;80;20980;-87
2022/06/02 03:14:24;;;;;;;12.95;9.53;;;;;;;12.23;90.55;98124.77;1749783;80;21012;-87
2022/06/02 03:16:55;;;;;;;15.45;10.35;;;;;;;12.26;90.45;98126.91;1778272;80;21148;-84
2022/06/02 03:19:50;;;;;;;13.55;10.30;;;;;;;12.31;90.83;98132.30;1775905;80;21068;-87
2022/06/02 03:22:55;;;;;;;15.00;10.53;;;;;;;12.36;92.57;98139.02;1778602;80;21796;-87
2022/06/02 03:25:45;;;;;;;14.25;9.63;;;;;;;12.37;94.72;98137.91;1763225;80;20991;-83
2022/06/02 03:28:41;;;;;;;13.03;8.43;;;;;;;12.37;92.60;98135.20;1766868;80;21413;-83
2022/06/02 03:31:22;;;;;;;13.72;9.60;;;;;;;12.31;92.64;98138.53;1774951;80;21009;-87
2022/06/02 03:34:12;;;;;;;14.18;9.55;;;;;;;12.32;92.72;98132.55;1778517;79;21021;-84
2022/06/02 03:37:00;;;;;;;14.93;8.90;;;;;;;12.31;97.35;98126.31;1771154;79;21505;-85
2022/06/02 03:39:49;;;;;;;13.85;8.58;;;;;;;12.30;94.46;98114.34;1769990;80;20983;-86
2022/06/02 03:42:45;;;;;;;13.43;9.30;;;;;;;12.29;93.54;98110.02;1757754;80;21028;-83
2022/06/02 03:45:44;;;;;;;12.63;8.78;;;;;;;12.29;93.54;98116.25;1778928;80;21095;-84
2022/06/02 03:48:30;;;;;;;11.40;9.93;;;;;;;12.33;92.71;98118.67;1778848;80;21484;-84
2022/06/02 03:51:17;;;;;;;12.47;9.55;;;;;;;12.37;92.26;98129.21;1779201;80;21811;-87
2022/06/02 03:54:07;;;;;;;12.70;10.15;;;;;;;12.43;92.03;98118.55;1778546;80;21064;-83
2022/06/02 03:57:01;;;;;;;12.85;10.85;;;;;;;12.39;93.06;98118.89;1754904;80;21023;-84
2022/06/02 04:00:00;;;;;;;13.22;9.98;;;;;;;12.41;94.21;98120.76;1750801;80;21026;-84
2022/06/02 04:02:34;;;;;;;14.63;10.23;;;;;;;12.45;93.07;98135.92;1779186;79;21020;-84
2022/06/02 04:05:25;;;;;;;15.80;10.85;;;;;;;12.48;92.54;98135.92;1755983;80;21500;-83
2022/06/02 04:08:09;;;;;;;12.90;9.93;;;;;;;12.50;93.31;98138.59;1771633;80;21052;-84
2022/06/02 04:10:56;;;;;;;13.95;9.65;;;;;;;12.59;93.02;98138.77;1777559;80;21072;-87
2022/06/02 04:14:02;;;;;;;18.02;10.58;;;;;;;12.61;92.92;98140.64;1721735;82;20999;-85
2022/06/02 04:16:49;;;;;;;13.43;10.05;;;;;;;12.59;95.85;98140.13;1771183;79;21004;-85
2022/06/02 04:22:31;;;;;;;19.45;11.55;;;;;;;12.56;93.41;98142.89;1764557;80;21449;-83
2022/06/02 04:25:24;;;;;;;14.10;10.13;;;;;;;12.51;93.34;98138.05;1775058;80;21027;-83
2022/06/02 04:28:25;;;;;;;14.25;10.15;;;;;;;12.48;95.45;98135.37;1778879;79;21052;-87
2022/06/02 04:31:03;;;;;;;16.50;13.45;;;;;;;12.52;93.78;98140.47;1773684;80;21048;-86
2022/06/02 04:33:38;;;;;;;19.98;14.78;;;;;;;12.62;94.99;98144.42;1778749;80;21021;-85
2022/06/02 04:36:34;;;;;;;18.17;12.98;;;;;;;12.65;99.02;98142.51;1778423;80;21411;-84
2022/06/02 04:39:21;;;;;;;15.63;10.70;;;;;;;12.70;97.98;98134.27;1744593;80;21076;-87
2022/06/02 04:42:07;;;;;;;14.10;10.10;;;;;;;12.77;97.84;98140.72;1776744;79;21044;-84
2022/06/02 04:44:42;;;;;;;16.23;10.72;;;;;;;12.82;96.72;98146.63;1773336;80;21507;-87
2022/06/02 04:47:55;;;;;;;12.13;10.20;;;;;;;12.84;96.45;98153.42;1771188;80;21168;-83
2022/06/02 04:50:44;;;;;;;12.70;9.80;;;;;;;12.87;97.50;98159.62;1770178;80;20973;-84
2022/06/02 04:53:22;;;;;;;13.05;8.78;;;;;;;12.92;95.74;98164.20;1779319;80;21480;-83
2022/06/02 04:56:22;;;;;;;10.63;9.15;;;;;;;12.88;95.83;98157.72;1768320;80;21435;-86
2022/06/02 04:59:17;;;;;;;12.65;8.85;;;;;;;12.84;95.90;98158.05;1764791;79;21008;-86
2022/06/02 05:02:14;;;;;;;12.45;9.43;;;;;;;12.82;96.36;98155.63;1751167;80;21804;-87
2022/06/02 05:04:55;;;;;;;16.15;9.23;;;;;;;12.82;97.66;98165.14;1758990;80;21548;-84
2022/06/02 05:07:42;;;;;;;12.85;9.25;;;;;;;12.87;96.20;98167.78;1776122;79;21019;-87
2022/06/02 05:10:40;;;;;;;12.82;9.28;;;;;;;12.84;96.53;98160.22;1779224;80;21036;-87
2022/06/02 05:13:20;;;;;;;10.05;7.90;;;;;;;12.87;96.40;98162.34;1779231;79;20988;-84
2022/06/02 05:15:52;;;;;;;10.82;9.30;;;;;;;12.90;95.84;98169.94;1729878;81;22025;-84
2022/06/02 05:18:50;;;;;;;13.05;9.40;;;;;;;12.96;95.50;98176.11;1755498;80;21484;-86
2022/06/02 05:21:39;;;;;;;12.70;8.10;;;;;;;13.07;95.39;98183.03;1755963;80;20995;-85
2022/06/02 05:24:28;;;;;;;13.40;10.23;;;;;;;13.22;96.21;98173.90;1744027;80;21464;-86
2022/06/02 05:27:21;;;;;;;15.55;12.35;;;;;;;13.29;96.30;98177.63;1777921;79;21001;-84
2022/06/02 05:30:36;;;;;;;19.37;13.95;;;;;;;13.30;96.82;98170.52;1771136;80;21476;-87
2022/06/02 05:33:23;;;;;;;15.38;11.30;;;;;;;13.34;96.97;98162.59;1779073;79;20980;-87
2022/06/02 05:36:26;;;;;;;16.50;10.15;;;;;;;13.33;96.34;98171.84;1770806;80;21044;-85
2022/06/02 05:39:03;;;;;;;10.35;8.98;;;;;;;13.41;96.21;98176.62;1739169;81;21041;-83
2022/06/02 05:41:47;;;;;;;17.55;11.45;;;;;;;13.46;96.28;98177.38;1745840;80;21490;-88
2022/06/02 05:44:43;;;;;;;13.85;9.78;;;;;;;13.43;96.45;98171.16;1768011;80;21082;-85
2022/06/02 05:47:56;;;;;;;13.28;10.32;;;;;;;13.40;96.46;98171.73;1749844;80;21003;-87
2022/06/02 05:50:58;;;;;;;16.27;11.00;;;;;;;13.46;96.38;98179.28;1766997;79;21454;-87
2022/06/02 05:54:04;;;;;;;15.18;10.82;;;;;;;13.60;96.29;98186.98;1776484;80;21454;-87
2022/06/02 05:56:53;;;;;;;17.60;11.70;;;;;;;13.74;96.22;98195.20;1779127;79;21040;-87
2022/06/02 05:59:59;;;;;;;16.65;9.95;;;;;;;13.82;96.30;98189.08;1777621;80;21129;-87
2022/06/02 06:02:39;;;;;;;19.02;11.10;;;;;;;14.00;96.80;98195.60;1777078;79;21543;-84
2022/06/02 06:05:17;;;;;;;16.87;11.30;;;;;;;14.24;96.76;98203.66;1768260;80;21022;-88
2022/06/02 06:08:06;;;;;;;12.85;11.50;;;;;;;14.45;95.81;98198.15;1766050;80;22266;-87
2022/06/02 06:10:50;;;;;;;15.60;11.68;;;;;;;14.62;95.28;98190.19;1767293;78;21112;-84
2022/06/02 06:14:00;;;;;;;14.15;10.68;;;;;;;14.83;94.87;98193.88;1771032;80;21133;-87
2022/06/02 06:16:34;;;;;;;17.42;12.50;;;;;;;14.95;94.53;98188.71;1748512;80;21019;-87
2022/06/02 06:19:31;;;;;;;16.10;11.70;;;;;;;15.06;94.06;98196.96;1747038;80;21060;-88
2022/06/02 06:22:31;;;;;;;14.75;9.25;;;;;;;15.15;93.87;98197.05;1770207;80;21009;-85
2022/06/02 06:25:16;;;;;;;16.42;12.73;;;;;;;15.23;93.44;98199.88;1750567;80;21480;-84
2022/06/02 06:27:53;;;;;;;15.50;11.83;;;;;;;15.24;92.95;98195.22;1773115;79;21302;-87
2022/06/02 06:30:48;;;;;;;11.50;9.18;;;;;;;15.40;93.65;98206.06;1766083;79;21124;-88
2022/06/02 06:33:36;;;;;;;11.12;9.00;;;;;;;15.57;93.09;98201.89;1755834;79;21011;-88
2022/06/02 06:36:32;;;;;;;7.53;6.37;;;;;;;15.65;92.52;98205.28;1749256;80;26545;-87
2022/06/02 06:39:40;;;;;;;8.50;6.28;;;;;;;15.64;91.35;98208.58;1740618;80;21647;-84
2022/06/02 06:42:24;;;;;;;7.45;6.67;;;;;;;15.59;91.03;98211.94;1742839;80;21170;-84
2022/06/02 06:45:20;;;;;;;8.03;6.70;;;;;;;15.66;90.88;98213.73;1715417;82;21064;-85
2022/06/02 06:47:59;;;;;;;8.28;6.30;;;;;;;15.77;90.04;98223.30;1756308;80;21072;-87
2022/06/02 06:50:43;;;;;;;7.75;6.80;;;;;;;15.80;90.44;98227.57;1771216;80;21030;-87
2022/06/02 06:53:23;;;;;;;7.65;5.95;;;;;;;15.93;89.72;98232.75;1758888;79;21092;-84
2022/06/02 06:56:01;;;;;;;7.10;5.53;;;;;;;16.01;88.73;98233.95;1764572;80;21969;-85
2022/06/02 06:58:35;;;;;;;7.85;6.17;;;;;;;15.99;88.77;98236.99;1765093;80;21005;-84
2022/06/02 07:01:49;;;;;;;12.78;8.75;;;;;;;16.12;88.62;98242.14;1772106;80;21646;-87
2022/06/02 07:04:45;;;;;;;11.40;8.33;;;;;;;16.25;88.58;98240.48;1769085;80;21048;-88
2022/06/02 07:07:17;;;;;;;10.60;8.75;;;;;;;16.46;87.81;98239.39;1777352;80;21519;-83
2022/06/02 07:09:54;;;;;;;14.00;8.53;;;;;;;16.53;87.53;98239.20;1763716;80;21074;-87
2022/06/02 07:12:53;;;;;;;12.05;9.98;;;;;;;16.68;87.62;98244.03;1745365;80;21107;-88
2022/06/02 07:15:36;;;;;;;;;;;;;;;16.81;87.74;98243.16;1765084;79;21467;-88
2022/06/02 07:18:30;;;;;;;21.07;12.47;;;;;;;16.85;88.78;98250.44;1773662;80;20211;-87
2022/06/02 07:21:21;;;;;;;25.23;15.23;;;;;;;17.06;88.37;98252.04;1768014;79;21020;-85
2022/06/02 07:24:30;;;;;;;16.37;10.45;;;;;;;17.38;87.64;98253.59;1772462;79;21275;-84
2022/06/02 07:27:22;;;;;;;13.10;9.48;;;;;;;17.54;88.17;98255.33;1769962;79;21019;-85
2022/06/02 07:30:06;;;;;;;8.53;7.62;;;;;;;17.97;87.47;98253.23;1774222;80;21084;-88
2022/06/02 07:33:13;;;;;;;8.78;6.83;;;;;;;18.36;86.78;98259.66;1779357;79;21001;-88
2022/06/02 07:36:15;;;;;;;6.90;5.53;;;;;;;19.04;83.78;98253.20;1744055;80;21551;-87
2022/06/02 07:39:23;;;;;;;6.72;4.75;;;;;;;18.97;83.07;98259.80;1725197;82;21155;-87
2022/06/02 07:42:15;;;;;;;4.80;3.98;;;;;;;19.54;79.34;98257.17;1773166;79;21688;-87
2022/06/02 07:44:56;;;;;;;5.97;4.95;;;;;;;20.32;77.54;98260.73;1741909;80;21111;-86
2022/06/02 07:47:37;;;;;;;4.33;3.37;;;;;;;20.73;76.16;98261.25;1770302;79;21401;-88
2022/06/02 07:50:25;;;;;;;6.62;3.87;;;;;;;21.16;75.80;98256.62;1770802;79;21004;-89
2022/06/02 07:53:13;;;;;;;4.22;3.75;;;;;;;21.51;74.17;98261.70;1750689;80;21120;-86
2022/06/02 07:56:02;;;;;;;4.85;3.85;;;;;;;21.86;70.81;98251.77;1768577;80;21594;-86
2022/06/02 07:58:40;;;;;;;6.83;3.37;;;;;;;22.58;68.60;98258.80;1779103;78;20996;-85
2022/06/02 08:01:21;;;;;;;5.58;2.98;;;;;;;23.56;66.71;98253.41;1768057;80;21016;-86
2022/06/02 08:03:55;;;;;;;6.97;3.00;;;;;;;23.57;66.05;98259.74;1773757;80;21016;-89
2022/06/02 08:06:47;;;;;;;4.28;3.22;;;;;;;23.48;62.47;98253.02;1772424;79;21074;-86
2022/06/02 08:09:41;;;;;;;3.95;2.90;;;;;;;22.99;63.29;98277.48;1775788;80;21463;-89
2022/06/02 08:12:41;;;;;;;4.25;2.75;;;;;;;22.47;64.48;98279.22;1764265;79;21064;-88
2022/06/02 08:15:19;;;;;;;3.30;2.50;;;;;;;21.79;64.08;98281.92;1768735;80;21036;-87
2022/06/02 08:18:02;;;;;;;3.47;2.20;;;;;;;21.25;65.59;98288.20;1768455;80;21004;-88
2022/06/02 08:20:52;;;;;;;4.70;2.70;;;;;;;20.97;65.29;98294.36;1772885;79;21156;-88
2022/06/02 08:23:46;;;;;;;3.67;2.35;;;;;;;20.70;65.98;98301.30;1777552;80;21049;-88
2022/06/02 08:26:23;;;;;;;4.83;2.40;;;;;;;20.83;64.36;98302.13;1767471;80;21056;-88
2022/06/02 08:29:17;;;;;;;4.50;2.25;;;;;;;20.81;65.53;98302.47;1775879;79;21020;-86
2022/06/02 08:32:05;;;;;;;4.45;1.98;;;;;;;20.19;65.88;98314.34;1768374;79;21005;-88
2022/06/02 08:34:49;;;;;;;3.90;2.62;;;;;;;19.33;66.08;98310.71;1760158;79;21082;-85
2022/06/02 08:37:48;;;;;;;5.55;3.25;;;;;;;19.15;66.92;98316.27;1776032;79;21291;-88
2022/06/02 08:40:51;;;;;;;5.50;3.92;;;;;;;18.90;67.36;98319.09;1764791;80;21068;-85
2022/06/02 08:43:35;;;;;;;6.95;4.80;;;;;;;20.41;63.69;98318.67;1779123;80;21521;-85
2022/06/02 08:46:35;;;;;;;10.35;5.70;;;;;;;21.86;58.72;98313.83;1778055;80;21270;-88
2022/06/02 08:49:35;;;;;;;6.90;4.65;;;;;;;22.14;57.45;98316.70;1767846;80;21516;-89
2022/06/02 08:52:36;;;;;;;6.67;3.65;;;;;;;23.11;56.50;98327.14;1757040;79;21443;-85
2022/06/02 08:55:31;;;;;;;4.28;2.58;;;;;;;22.79;56.00;98324.28;1770574;79;21404;-89
2022/06/02 08:58:32;;;;;;;4.85;2.37;;;;;;;22.91;55.19;98324.05;1755127;79;21068;-90
2022/06/02 09:01:33;;;;;;;4.83;2.02;;;;;;;23.99;53.64;98316.67;1762963;79;21056;-85
2022/06/02 09:04:27;;;;;;;5.60;2.37;;;;;;;23.58;49.90;98318.04;1769265;80;21091;-89
2022/06/02 09:07:51;;;;;;;4.17;3.15;;;;;;;24.53;52.28;98324.80;1762994;79;21409;-86
2022/06/02 09:10:28;;;;;;;6.95;2.10;;;;;;;24.75;48.94;98319.30;1759613;79;21056;-86
2022/06/02 09:13:22;;;;;;;2.60;2.05;;;;;;;25.50;45.88;98321.28;1760622;78;21326;-86
2022/06/02 09:16:27;;;;;;;3.70;2.10;;;;;;;24.43;48.48;98324.19;1760427;79;21140;-86
2022/06/02 09:19:29;;;;;;;4.17;2.10;;;;;;;23.26;49.49;98330.50;1742124;80;21209;-85
2022/06/02 09:22:13;;;;;;;3.10;2.40;;;;;;;21.79;52.88;98330.18;1718407;81;21103;-85
2022/06/02 09:25:07;;;;;;;7.15;2.10;;;;;;;21.74;54.01;98334.54;1708665;82;21435;-86
2022/06/02 09:28:11;;;;;;;4.20;2.42;;;;;;;22.29;52.95;98335.85;1770907;78;21532;-85
2022/06/02 09:31:05;;;;;;;3.40;2.20;;;;;;;23.28;52.47;98335.09;1767595;78;21135;-85
2022/06/02 09:34:16;;;;;;;3.33;1.90;;;;;;;25.04;49.14;98325.44;1775957;79;21961;-86
2022/06/02 09:37:11;;;;;;;3.83;2.00;;;;;;;25.81;42.45;98336.30;1774797;79;20962;-89
2022/06/02 09:39:45;;;;;;;4.30;1.95;;;;;;;26.73;42.25;98330.41;1772686;80;23110;-90
2022/06/02 09:42:35;;;;;;;4.12;2.17;;;;;;;25.42;43.99;98338.38;1771345;78;21052;-89
2022/06/02 09:45:32;;;;;;;5.97;3.30;;;;;;;23.70;47.36;98342.08;1775473;78;21154;-90
2022/06/02 09:48:36;;;;;;;6.60;3.15;;;;;;;22.42;52.83;98355.96;1775581;79;21154;-89
2022/06/02 09:51:26;;;;;;;5.30;2.83;;;;;;;21.37;56.69;98362.67;1767214;79;21063;-89
2022/06/02 09:54:38;;;;;;;5.17;3.22;;;;;;;20.37;59.32;98372.80;1760664;79;21399;-89
2022/06/02 09:57:56;;;;;;;5.78;3.60;;;;;;;20.26;58.44;98370.22;1684413;82;21062;-89
2022/06/02 10:00:46;;;;;;;4.55;4.12;;;;;;;19.89;61.58;98376.02;1763998;79;21564;-88
2022/06/02 10:03:35;;;;;;;5.90;4.05;;;;;;;19.75;61.17;98379.02;1754157;79;21234;-89
2022/06/02 10:06:31;;;;;;;7.58;4.00;;;;;;;21.64;55.56;98377.17;1763927;80;20996;-89
2022/06/02 10:09:31;;;;;;;5.35;3.08;;;;;;;23.44;50.80;98373.81;1773909;79;21008;-89
2022/06/02 10:15:36;;;;;;;5.20;3.05;;;;;;;26.39;42.30;98365.11;1766636;78;20957;-91
2022/06/02 10:18:27;;;;;;;3.12;2.70;;;;;;;27.48;39.56;98362.62;1768405;78;22332;-90
2022/06/02 10:21:13;;;;;;;3.00;2.70;;;;;;;28.38;40.54;98359.97;1771202;80;21044;-90
2022/06/02 10:24:10;;;;;;;3.37;2.92;;;;;;;29.55;38.84;98353.20;1769150;78;21020;-91
2022/06/02 10:27:15;;;;;;;5.15;2.85;;;;;;;29.94;35.57;98358.20;1748898;79;21494;-86
2022/06/02 10:30:25;;;;;;;4.25;2.62;;;;;;;30.02;33.71;98352.80;1752102;79;20956;-86
2022/06/02 10:33:25;;;;;;;4.60;3.20;;;;;;;28.30;37.61;98356.34;1771736;79;22078;-86
2022/06/02 10:36:32;;;;;;;4.58;3.70;;;;;;;27.45;39.07;98358.42;1764960;79;21135;-90
2022/06/02 10:39:44;;;;;;;5.87;3.00;;;;;;;29.26;37.45;98355.94;1758000;80;21106;-90
2022/06/02 10:42:46;;;;;;;4.95;2.83;;;;;;;30.47;36.52;98357.31;1759132;78;21048;-90
2022/06/02 10:46:02;;;;;;;4.08;3.67;;;;;;;31.63;35.24;98363.36;1765669;79;21493;-91
2022/06/02 10:48:59;;;;;;;3.27;2.60;;;;;;;30.84;32.95;98361.59;1769381;79;22634;-90
2022/06/02 10:52:05;;;;;;;4.47;3.70;;;;;;;29.80;33.05;98356.00;1769559;79;21111;-91
2022/06/02 10:55:07;;;;;;;3.27;2.95;;;;;;;30.24;32.87;98355.57;1767506;78;21068;-89
2022/06/02 10:58:00;;;;;;;5.50;2.98;;;;;;;31.04;32.15;98353.52;1769859;79;21469;-91
2022/06/02 11:00:41;;;;;;;4.78;3.25;;;;;;;31.36;32.03;98357.53;1761158;78;21045;-91
2022/06/02 11:03:59;;;;;;;3.27;2.65;;;;;;;31.33;30.49;98355.56;1766038;79;21640;-91
2022/06/02 11:06:53;;;;;;;5.97;3.10;;;;;;;31.47;29.77;98356.88;1769251;79;21022;-90
2022/06/02 11:09:42;;;;;;;4.33;2.83;;;;;;;31.21;29.89;98356.84;1766992;79;21409;-89
2022/06/02 11:12:56;;;;;;;4.62;3.10;;;;;;;30.66;31.78;98351.88;1770730;78;21067;-90
2022/06/02 11:15:39;;;;;;;3.15;2.80;;;;;;;29.73;32.52;98350.61;1771168;79;20995;-91
2022/06/02 11:18:36;;;;;;;3.00;2.70;;;;;;;31.15;32.17;98358.45;1765214;79;21260;-91
2022/06/02 11:21:37;;;;;;;3.83;2.85;;;;;;;31.58;31.58;98364.59;1772782;80;21418;-91
2022/06/02 11:24:37;;;;;;;4.28;3.60;;;;;;;30.46;31.83;98357.13;1761593;79;21047;-90
2022/06/02 11:27:51;;;;;;;3.33;2.98;;;;;;;29.33;33.08;98360.14;1744803;79;21422;-86
2022/06/02 11:30:51;;;;;;;5.80;3.00;;;;;;;29.12;33.06;98349.72;1773705;79;20969;-86
2022/06/02 11:33:35;;;;;;;5.55;3.40;;;;;;;28.64;33.20;98347.16;1766332;79;21157;-87
2022/06/02 11:36:51;;;;;;;3.42;2.80;;;;;;;28.52;33.48;98346.69;1768883;78;21052;-86
2022/06/02 11:39:57;;;;;;;6.55;3.27;;;;;;;29.86;31.96;98351.62;1765169;79;21084;-86
2022/06/02 11:42:34;;;;;;;4.55;3.02;;;;;;;30.16;31.89;98353.98;1770595;79;21310;-86
2022/06/02 11:45:45;;;;;;;3.70;3.22;;;;;;;29.96;31.30;98353.00;1764393;79;21027;-86
2022/06/02 11:48:38;;;;;;;4.92;3.10;;;;;;;30.61;30.07;98357.28;1758022;79;21520;-86
2022/06/02 11:51:27;;;;;;;5.08;2.50;;;;;;;27.17;33.78;98371.44;1767898;78;21405;-86
2022/06/02 11:54:22;;;;;;;4.92;3.10;;;;;;;28.73;31.72;98355.16;1746290;79;21059;-86
2022/06/02 11:57:39;;;;;;;4.20;2.50;;;;;;;29.67;30.81;98367.58;1753471;80;21660;-87
2022/06/02 12:00:53;;;;;;;3.33;2.97;;;;;;;29.99;30.32;98360.56;1762514;79;21108;-86
2022/06/02 12:03:56;;;;;;;5.72;2.92;;;;;;;30.41;29.81;98367.91;1764056;79;21625;-86
2022/06/02 12:07:02;;;;;;;6.80;3.80;;;;;;;31.48;28.89;98368.27;1769982;79;21347;-86
2022/06/02 12:10:07;;;;;;;7.87;3.02;;;;;;;30.74;29.53;98382.81;1776730;78;20980;-86
2022/06/02 12:13:00;;;;;;;5.12;3.15;;;;;;;29.87;30.14;98381.14;1779460;78;21027;-86
2022/06/02 12:15:58;;;;;;;4.08;2.67;;;;;;;28.96;30.48;98372.98;1775861;78;21350;-86
2022/06/02 12:18:41;;;;;;;5.78;2.62;;;;;;;30.59;28.47;98377.86;1775290;78;21951;-90
2022/06/02 12:21:40;;;;;;;5.35;2.40;;;;;;;31.09;27.97;98372.06;1744947;79;21099;-90
2022/06/02 12:24:52;;;;;;;4.53;3.50;;;;;;;30.54;28.34;98374.07;1768873;79;21084;-90
2022/06/02 12:27:42;;;;;;;4.75;2.85;;;;;;;30.96;27.24;98382.73;1774815;79;21060;-90
2022/06/02 12:30:37;;;;;;;5.72;2.72;;;;;;;30.32;28.60;98395.67;1763963;79;21102;-90
2022/06/02 12:33:25;;;;;;;6.70;2.85;;;;;;;29.49;29.09;98387.11;1751646;79;21283;-91
2022/06/02 12:36:08;;;;;;;4.62;2.47;;;;;;;30.40;28.73;98374.70;1758332;79;21056;-89
2022/06/02 12:39:01;;;;;;;4.22;2.30;;;;;;;30.75;28.20;98388.59;1739364;79;21072;-90
2022/06/02 12:41:55;;;;;;;4.15;2.83;;;;;;;31.03;28.12;98387.70;1774566;79;21567;-90
2022/06/02 12:44:45;;;;;;;3.20;2.83;;;;;;;30.49;28.11;98382.06;1766724;79;21086;-90
2022/06/02 12:47:51;;;;;;;3.20;2.72;;;;;;;29.57;29.38;98387.09;1730464;79;21028;-90
2022/06/02 12:50:31;;;;;;;3.85;2.35;;;;;;;30.29;28.66;98390.11;1768526;78;21056;-91
2022/06/02 12:53:35;;;;;;;3.40;2.72;;;;;;;29.27;29.46;98388.22;1769519;78;21041;-90
2022/06/02 12:56:38;;;;;;;4.40;2.80;;;;;;;29.16;29.42;98392.98;1763405;79;21078;-91
2022/06/02 12:59:42;;;;;;;5.60;2.70;;;;;;;29.82;29.05;98385.11;1768770;79;21419;-91
2022/06/02 13:02:26;;;;;;;2.72;2.40;;;;;;;30.40;27.97;98380.30;1772632;79;21160;-90
2022/06/02 13:05:28;;;;;;;4.55;2.52;;;;;;;28.15;31.35;98392.83;1733924;80;21075;-89
2022/06/02 13:08:20;;;;;;;5.45;2.00;;;;;;;29.05;30.92;98389.34;1777192;79;21066;-90
2022/06/02 13:11:17;;;;;;;4.97;2.80;;;;;;;29.23;29.93;98383.25;1770274;78;21660;-90
2022/06/02 13:14:20;;;;;;;4.62;2.30;;;;;;;27.71;31.76;98390.89;1768452;78;21064;-90
2022/06/02 13:17:12;;;;;;;3.80;2.95;;;;;;;27.68;32.41;98384.69;1773140;79;21235;-88
2022/06/02 13:20:13;;;;;;;5.35;2.60;;;;;;;26.96;33.08;98381.12;1766803;79;21057;-89
2022/06/02 13:23:04;;;;;;;3.67;2.92;;;;;;;26.85;33.66;98388.55;1766694;79;21088;-88
2022/06/02 13:26:12;;;;;;;5.80;2.70;;;;;;;28.20;32.23;98391.88;1773233;79;21032;-90
2022/06/02 13:29:11;;;;;;;3.33;2.22;;;;;;;28.78;30.07;98384.64;1779999;79;21012;-90
2022/06/02 13:32:03;;;;;;;3.58;1.92;;;;;;;28.78;30.07;98384.64;1766394;78;21115;-89
2022/06/02 13:35:25;;;;;;;5.20;2.58;;;;;;;29.17;28.95;98386.21;1740205;80;21008;-91